< < Back
Terminal Aerodrome Forecast


Current Version              Previous Versions:   1  2  3  4  5  6  7  8  9  

Terminal Aerodrome Forecast

664
FTUS42 KTAE 041120
TAFVLD
TAF
KVLD 041120Z 0412/0512 VRB03KT P6SM FEW035 FEW050 OVC060
     FM041500 32010G15KT P6SM SCT040
     FM050000 32002KT P6SM SKC=



Latest METAR

311
SAUS70 KWBC 051756
MTRVLD
METAR KVLD 051753Z 30012G21KT 260V360 10SM SCT035 22/03 A2977 RMK AO2
SLP089 T02220033 10228 20150 58016


USA.gov is the U.S. government's official web portal to all federal, state and local government web resources and services.